Dakin Peak, Santa Catalina Island Weather observations

Data are for 10 minute period ending at time listed.
 Day   Time   Solar   Ave.   Ave.  Ave.  Vector    Max.   Stn.    Total
  of    of     Rad.   Air    Rel.  Wind   Wind     Wind   Baro.  Precip.
Year   Day            Temp.  Hum.  Speed  Dir.     Gust   Pres.         
2015   (PST)   W/m2    F      %     mph   deg.      mph    mb.     in.  
------------------------------------------------------------------------
 110    5:10    0.0    52   91.9     7     88.4     9.0    999.0   0.00  
 110    5:20    1.0    52   91.7     6     89.8    10.2    999.0   0.00  
 110    5:30    4.0    52   91.5     6    103.5     7.8    999.0   0.00  
 110    5:40    7.0    52   91.0     6    101.2     7.8    999.0   0.00  
 110    5:50   13.0    52   90.6     6     98.1     7.8    999.0   0.00  
 110    6:00   18.0    52   90.5     5     75.6     9.0    999.0   0.00  
 110    6:10   22.0    52   90.9     6     94.7     8.4    999.0   0.00  
 110    6:20   30.0    52   90.6     6     93.4     9.0    999.0   0.00  
 110    6:30   38.0    52   90.7     6     97.8     8.4    999.0   0.00  
 110    6:40   51.0    52   89.6     6    101.2    10.8    999.0   0.00  
 110    6:50   68.0    53   88.7     7     92.7    10.2    999.0   0.00  
 110    7:00   83.0    53   87.8     5     90.5     9.6    999.0   0.00  
 110    7:10   94.0    53   87.7     2    107.8     5.4    999.0   0.00  
 110    7:20   98.0    53   87.6     4     97.6     7.8    999.0   0.00  
 110    7:30  125.0    54   86.8     4     72.8     6.6    999.0   0.00  
 110    7:40  125.0    53   86.5     3     56.9     6.0    999.0   0.00  
 110    7:50  151.0    55   84.6     4     91.4     7.2    999.0   0.00  
 110    8:00  181.0    55   83.4     5     77.4     7.8    999.0   0.00  
 110    8:10  208.0    56   82.5     5     78.3     7.2    999.0   0.00  
 110    8:20  259.0    57   79.6     4     76.8     7.8    999.0   0.00  
 110    8:30  294.0    58   78.3     5     68.7     7.2    999.0   0.00  
 110    8:40  265.0    58   77.6     5     84.8     8.4    999.0   0.00  
 110    8:50  439.0    60   73.3     6     90.5     9.0    999.0   0.00  
 110    9:00  351.0    60   73.7     6     93.7    10.8    999.0   0.00  
 110    9:10  450.0    59   75.3     6     81.9    10.8    999.0   0.00  
 110    9:20  306.0    59   76.0     7     82.8     9.6    999.0   0.00  
 110    9:30  530.0    60   74.6     6     82.6     9.0    999.0   0.00  
 110    9:40  484.0    62   70.6     5     88.3     8.4    999.0   0.00  
 110    9:50  368.0    61   71.2     6     80.6     9.0    999.0   0.00  
 110   10:00  469.0    59   74.8     8     78.6    11.3    999.0   0.00  
 110   10:10  424.0    60   72.2     6     81.6    10.2    999.0   0.00  
 110   10:20  399.0    59   75.2     6     68.4    11.9    999.0   0.00  
 110   10:30  426.0    59   74.5     7     80.3    12.5    999.0   0.00  
 110   10:40  407.0    59   75.8     7     70.0    11.9    999.0   0.00  
 110   10:50  419.0    59   76.1     8     76.4    11.3    999.0   0.00  
 110   11:00  510.0    60   74.4     8     88.0    13.7    999.0   0.00  
 110   11:10  424.0    59   75.3     7     74.2    11.3    999.0   0.00  
 110   11:20  483.0    59   76.7     6     51.5    10.8    999.0   0.00  
 110   11:30  497.0    60   74.3     6     70.2    10.2    999.0   0.00  
 110   11:40  625.0    60   73.9     6     69.6     9.6    999.0   0.00  
 110   11:50  561.0    61   72.3     6     78.9    11.3    999.0   0.00  
 110   12:00  632.0    61   72.3     6     84.8    11.3    999.0   0.00  
 110   12:10  737.0    62   70.0     6     93.7     8.4    999.0   0.00  
 110   12:20  749.0    62   69.1     6     83.9     9.6    999.0   0.00  
 110   12:30  744.0    62   70.2     6     91.9    10.8    999.0   0.00  
 110   12:40  737.0    62   69.2     5     91.2     7.2    999.0   0.00  
 110   12:50  733.0    63   67.2     5     98.0     9.0    999.0   0.00  
 110   13:00  727.0    63   67.3     4    109.9     8.4    999.0   0.00  
 110   13:10  719.0    64   63.5     5    208.9     9.6    999.0   0.00  
 110   13:20  707.0    63   65.7     5    216.2     9.6    999.0   0.00  
 110   13:30  693.0    61   68.3    10    222.9    15.5    999.0   0.00  
 110   13:40  678.0    60   70.8    10    224.1    16.1    999.0   0.00  
 110   13:50  662.0    59   71.7    13    229.0    20.3    999.0   0.00  
 110   14:00  647.0    59   73.1    13    227.9    18.5    999.0   0.00  
 110   14:10  630.0    59   71.5    13    232.9    19.1    999.0   0.00  
 110   14:20  613.0    60   69.7    10    239.0    14.9    999.0   0.00  
 110   14:30  595.0    61   69.3    10    240.5    14.3    999.0   0.00  
 110   14:40  576.0    60   70.4     9    230.7    13.1    999.0   0.00  
 110   14:50  548.0    61   69.2     8    239.8    13.1    999.0   0.00  
 110   15:00  532.0    61   67.4     9    255.5    14.3    999.0   0.00  
 110   15:10  509.0    60   68.1     8    257.2    13.7    999.0   0.00  
 110   15:20  486.0    62   65.1     8    257.0    12.5    999.0   0.00  
 110   15:30  462.0    61   65.8     9    263.2    14.3    999.0   0.00  
 110   15:40  436.0    60   66.5     9    261.2    13.7    999.0   0.00  
 110   15:50  409.0    60   67.6    11    258.5    15.5    999.0   0.00  
 110   16:00  383.0    59   68.8    12    254.1    16.1    999.0   0.00  
 110   16:10  355.0    58   71.5    14    261.2    19.1    999.0   0.00  
 110   16:20  327.0    57   73.8    14    260.9    19.7    999.0   0.00  
 110   16:30  299.0    57   74.1    12    254.3    16.7    999.0   0.00  
 110   16:40  270.0    57   75.6    11    255.8    15.5    999.0   0.00  
 110   16:50  242.0    57   75.2    12    255.4    16.1    999.0   0.00  
 110   17:00  213.0    56   76.6    10    252.2    13.7    999.0   0.00  
 110   17:10  185.0    56   77.6     9    253.1    13.1    999.0   0.00  
 110   17:20  157.0    56   76.7     8    255.2    10.8    999.0   0.00  
 110   17:30  130.0    56   77.9     8    254.5    12.5    999.0   0.00  
 110   17:40  103.0    56   78.1     7    240.0    10.2    999.0   0.00  
 110   17:50   78.0    55   80.0     4    219.8     8.4    999.0   0.00  
 110   18:00   52.0    56   79.4     2    195.3     4.2    999.0   0.00  
 110   18:10   31.0    54   82.0     6    239.2     9.0    999.0   0.00  
 110   18:20   14.0    52   85.5     8    250.8    10.2    999.0   0.00  
 110   18:30    5.0    51   87.2     8    250.8    10.8    999.0   0.00  
 110   18:40    1.0    51   88.7     9    249.7    11.3    999.0   0.00  
 110   18:50    0.0    50   89.2    10    250.6    12.5    999.0   0.00  
 110   19:00    0.0    50   89.8    11    249.8    13.1    999.0   0.00  
 110   19:10    0.0    50   90.3    11    252.7    13.7    999.0   0.00  
 110   19:20    0.0    50   90.8    11    250.3    14.3    999.0   0.00  
 110   19:30    0.0    50   91.2     8    237.0    13.1    999.0   0.00  
 110   19:40    0.0    50   91.4    10    249.4    12.5    999.0   0.00  
 110   19:50    0.0    50   91.3     9    243.8    13.1    999.0   0.00  
 110   20:00    0.0    50   91.1     9    245.0    11.9    999.0   0.00  
 110   20:10    0.0    50   91.0     9    240.5    11.3    999.0   0.00  
 110   20:20    0.0    50   91.1     8    233.3     9.6    999.0   0.00  
 110   20:30    0.0    50   91.1     8    231.5     9.6    999.0   0.00  
 110   20:40    0.0    50   91.2     7    231.7     9.0    999.0   0.00  
 110   20:50    0.0    50   91.4     6    223.4     7.8    999.0   0.00  
 110   21:00    0.0    50   91.3     4    219.7     7.8    999.0   0.00  
 110   21:10    0.0    50   91.0     8    232.6    10.8    999.0   0.00  
 110   21:20    0.0    50   90.5     9    237.3    11.3    999.0   0.00  
 110   21:30    0.0    50   90.3     9    241.8    13.1    999.0   0.00  
 110   21:40    0.0    50   90.1     9    241.6    11.9    999.0   0.00  
 110   21:50    0.0    50   90.2     7    248.6     9.0    999.0   0.00  
 110   22:00    0.0    50   89.7     7    253.9     9.0    999.0   0.00  
 110   22:10    0.0    51   88.9     8    256.4    10.2    999.0   0.00  
 110   22:20    0.0    51   88.1     7    251.6    10.2    999.0   0.00  
 110   22:30    0.0    51   87.8     8    248.4    10.8    999.0   0.00  
 110   22:40    0.0    50   87.8     9    251.5    11.3    999.0   0.00  
 110   22:50    0.0    50   87.7     9    250.3    12.5    999.0   0.00  
 110   23:00    0.0    51   87.5     9    245.8    13.1    999.0   0.00  
 110   23:10    0.0    51   87.2     9    250.7    11.9    999.0   0.00  
 110   23:20    0.0    51   86.7     8    262.0    10.8    999.0   0.00  
 110   23:30    0.0    51   86.2     9    253.6    11.9    999.0   0.00  
 110   23:40    0.0    51   86.0     8    255.5    11.3    999.0   0.00  
 110   23:50    0.0    51   85.5     8    244.3    10.8    999.0   0.00  
 111    0:00    0.0    51   85.2     9    241.9    11.3    999.0   0.00  
 111    0:10    0.0    51   84.6     9    243.4    11.9    999.0   0.00  
 111    0:20    0.0    51   84.4     7    249.2    11.3    999.0   0.00  
 111    0:30    0.0    51   84.1     6    275.7     9.0    999.0   0.00  
 111    0:40    0.0    51   84.0     6    249.6    10.8    999.0   0.00  
 111    0:50    0.0    51   83.1     5    254.4     8.4    999.0   0.00  
 111    1:00    0.0    51   82.8     4    247.7     6.6    999.0   0.00  
 111    1:10    0.0    52   83.2     6    246.3     8.4    999.0   0.00  
 111    1:20    0.0    51   82.9     7    239.7    10.8    999.0   0.00  
 111    1:30    0.0    51   81.9     6    248.6     9.6    999.0   0.00  
 111    1:40    0.0    51   82.1     5    257.0     6.6    999.0   0.00  
 111    1:50    0.0    52   81.7     5    254.3     6.6    999.0   0.00  
 111    2:00    0.0    52   82.0     4    241.6     5.4    999.0   0.00  
 111    2:10    0.0    52   82.2     3    254.6     5.4    999.0   0.00  
 111    2:20    0.0    52   82.1     4    256.9     6.0    999.0   0.00  
 111    2:30    0.0    52   82.6     4    258.6     6.0    999.0   0.00  
 111    2:40    0.0    52   83.1     4    256.3     6.0    999.0   0.00  
 111    2:50    0.0    52   83.8     5    249.6     6.6    999.0   0.00  
 111    3:00    0.0    52   84.5     5    254.0     7.2    999.0   0.00  
 111    3:10    0.0    52   85.2     6    256.9     7.8    999.0   0.00  
 111    3:20    0.0    52   85.6     6    259.0     7.2    999.0   0.00  
 111    3:30    0.0    52   85.6     6    255.3     7.8    999.0   0.00  
 111    3:40    0.0    52   85.1     7    253.4     9.6    999.0   0.00  
 111    3:50    0.0    52   84.7     8    244.9    11.9    999.0   0.00  
 111    4:00    0.0    52   84.6     8    250.9    10.8    999.0   0.00  
 111    4:10    0.0    52   84.5     7    249.2    10.2    999.0   0.00  
 111    4:20    0.0    51   84.4     7    239.5     9.6    999.0   0.00  
 111    4:30    0.0    51   84.0     8    245.8    10.2    999.0   0.00  
 111    4:40    0.0    51   83.5     8    243.6    10.2    999.0   0.00  
 111    4:50    0.0    51   83.0     8    238.3    10.2    999.0   0.00  
 111    5:00    0.0    51   82.6     7    239.3     9.0    999.0   0.00  

Return to Dakin Peak graphs page.


Western Regional Climate Center,wrcc@dri.edu